Time;durP1;ratioP1;P1;durP2;ratioP2;P2;SDS_P1;SDS_P2;PMS_P1;PMS_P2;Temp;Humidity;BMP_temperature;BMP_pressure;BME280_temperature;BME280_humidity;BME280_pressure;Samples;Min_cycle;Max_cycle;Signal;HPM_P1;HPM_P2
2024/01/04 00:02:02;;;;;;;3.83;1.30;;;;;;;;;;5098651;27;40242;-76
2024/01/04 00:04:30;;;;;;;5.30;1.10;;;;;;;;;;5095135;27;42098;-75
2024/01/04 00:06:58;;;;;;;3.38;1.10;;;;;;;;;;5079409;28;40334;-76
2024/01/04 00:09:26;;;;;;;3.53;1.27;;;;;;;;;;5101399;27;42212;-75
2024/01/04 00:11:54;;;;;;;4.22;1.55;;;;;;;;;;5105978;27;41360;-74
2024/01/04 00:14:22;;;;;;;3.63;0.98;;;;;;;;;;5098131;27;41882;-74
2024/01/04 00:16:52;;;;;;;7.95;1.40;;;;;;;;;;5106274;27;40814;-74
2024/01/04 00:19:19;;;;;;;3.65;1.10;;;;;;;;;;5082403;28;40222;-73
2024/01/04 00:21:48;;;;;;;2.97;1.13;;;;;;;;;;5095536;27;39691;-74
2024/01/04 00:24:16;;;;;;;2.65;1.25;;;;;;;;;;5092497;27;41616;-74
2024/01/04 00:26:44;;;;;;;5.10;1.38;;;;;;;;;;5102739;27;41794;-74
2024/01/04 00:29:12;;;;;;;3.25;1.20;;;;;;;;;;5105150;27;40383;-74
2024/01/04 00:31:40;;;;;;;4.50;1.20;;;;;;;;;;5106666;27;41194;-74
2024/01/04 00:34:10;;;;;;;2.83;1.20;;;;;;;;;;5109547;27;41835;-74
2024/01/04 00:36:38;;;;;;;3.38;1.13;;;;;;;;;;5099260;27;40479;-74
2024/01/04 00:39:07;;;;;;;3.63;1.27;;;;;;;;;;5079667;28;39460;-74
2024/01/04 00:41:35;;;;;;;2.10;1.05;;;;;;;;;;5108798;27;43137;-73
2024/01/04 00:44:03;;;;;;;4.93;1.05;;;;;;;;;;5109790;27;41536;-74
2024/01/04 00:46:33;;;;;;;2.80;1.00;;;;;;;;;;5110973;27;42868;-74
2024/01/04 00:49:01;;;;;;;1.67;0.80;;;;;;;;;;5091708;27;39998;-73
2024/01/04 00:51:30;;;;;;;1.60;0.90;;;;;;;;;;5110553;27;41498;-74
2024/01/04 00:53:58;;;;;;;1.65;0.95;;;;;;;;;;5091873;27;41548;-74
2024/01/04 00:56:31;;;;;;;1.83;0.75;;;;;;;;;;5091199;28;38841;-74
2024/01/04 00:58:59;;;;;;;2.05;1.08;;;;;;;;;;5106755;27;41194;-74
2024/01/04 01:01:27;;;;;;;2.97;1.00;;;;;;;;;;5091253;27;40890;-74
2024/01/04 01:03:57;;;;;;;2.63;1.08;;;;;;;;;;5104496;27;40237;-74
2024/01/04 01:06:25;;;;;;;2.55;1.10;;;;;;;;;;5098959;27;43176;-74
2024/01/04 01:08:54;;;;;;;2.80;1.00;;;;;;;;;;5109693;27;41921;-74
2024/01/04 01:11:22;;;;;;;3.25;0.90;;;;;;;;;;5109809;27;41691;-74
2024/01/04 01:13:50;;;;;;;2.08;0.90;;;;;;;;;;5110075;27;41911;-73
2024/01/04 01:16:18;;;;;;;3.58;1.08;;;;;;;;;;5091405;28;40622;-74
2024/01/04 01:18:46;;;;;;;1.55;0.73;;;;;;;;;;5090924;28;41715;-74
2024/01/04 01:21:14;;;;;;;3.72;0.85;;;;;;;;;;5114994;27;42652;-73
2024/01/04 01:23:43;;;;;;;2.00;0.98;;;;;;;;;;5100322;28;40732;-74
2024/01/04 01:26:12;;;;;;;3.25;1.10;;;;;;;;;;5109295;27;42162;-73
2024/01/04 01:28:40;;;;;;;4.40;1.17;;;;;;;;;;5091344;28;38940;-74
2024/01/04 01:31:08;;;;;;;4.22;1.20;;;;;;;;;;5109128;27;41717;-73
2024/01/04 01:33:36;;;;;;;3.25;1.45;;;;;;;;;;5109655;28;42025;-74
2024/01/04 01:36:06;;;;;;;2.42;1.20;;;;;;;;;;5092342;27;39004;-78
2024/01/04 01:38:35;;;;;;;2.25;1.30;;;;;;;;;;5095545;28;42562;-78
2024/01/04 01:41:03;;;;;;;2.20;1.25;;;;;;;;;;5109851;27;40561;-78
2024/01/04 01:43:32;;;;;;;1.55;0.70;;;;;;;;;;5121802;27;40526;-79
2024/01/04 01:46:00;;;;;;;1.40;0.98;;;;;;;;;;5122229;27;42251;-79
2024/01/04 01:48:28;;;;;;;1.77;1.00;;;;;;;;;;5095465;28;39439;-78
2024/01/04 01:50:57;;;;;;;2.47;0.90;;;;;;;;;;5126327;27;41293;-78
2024/01/04 01:53:25;;;;;;;2.90;1.35;;;;;;;;;;5114976;27;43104;-78
2024/01/04 01:55:53;;;;;;;5.22;1.35;;;;;;;;;;5105016;27;40820;-78
2024/01/04 01:58:21;;;;;;;4.38;1.30;;;;;;;;;;5097632;27;40841;-78
2024/01/04 02:00:50;;;;;;;3.33;1.30;;;;;;;;;;5095497;28;40872;-78
2024/01/04 02:03:18;;;;;;;2.20;0.90;;;;;;;;;;5110584;27;41356;-78
2024/01/04 02:05:47;;;;;;;5.47;1.00;;;;;;;;;;5114874;27;41554;-79
2024/01/04 02:08:15;;;;;;;3.08;1.33;;;;;;;;;;5110028;28;41715;-78
2024/01/04 02:10:43;;;;;;;2.65;1.15;;;;;;;;;;5108476;27;41340;-78
2024/01/04 02:13:11;;;;;;;1.45;0.80;;;;;;;;;;5088587;28;40843;-78
2024/01/04 02:15:39;;;;;;;2.50;1.02;;;;;;;;;;5089256;27;38671;-77
2024/01/04 02:18:08;;;;;;;3.45;1.05;;;;;;;;;;5109142;27;42265;-78
2024/01/04 02:20:36;;;;;;;2.08;0.73;;;;;;;;;;5090674;28;40637;-78
2024/01/04 02:23:06;;;;;;;3.15;1.17;;;;;;;;;;5094082;27;41148;-78
2024/01/04 02:25:34;;;;;;;1.38;0.57;;;;;;;;;;5090154;28;40211;-78
2024/01/04 02:28:02;;;;;;;2.33;0.73;;;;;;;;;;5103985;28;40476;-78
2024/01/04 02:30:30;;;;;;;2.70;0.80;;;;;;;;;;5108720;27;41356;-78
2024/01/04 02:33:00;;;;;;;2.22;1.05;;;;;;;;;;5078525;27;40486;-78
2024/01/04 02:35:28;;;;;;;2.65;1.00;;;;;;;;;;5108634;28;40519;-78
2024/01/04 02:37:56;;;;;;;2.83;0.95;;;;;;;;;;5089086;28;39983;-78
2024/01/04 02:40:25;;;;;;;2.92;0.93;;;;;;;;;;5107353;27;40785;-78
2024/01/04 02:42:53;;;;;;;1.95;0.70;;;;;;;;;;5107913;27;40277;-78
2024/01/04 02:45:21;;;;;;;3.15;1.08;;;;;;;;;;5086886;28;39287;-78
2024/01/04 02:47:49;;;;;;;0.82;0.70;;;;;;;;;;5089728;28;40690;-78
2024/01/04 02:50:18;;;;;;;2.00;0.98;;;;;;;;;;5108224;27;40877;-78
2024/01/04 02:52:46;;;;;;;2.25;0.70;;;;;;;;;;5090264;28;40171;-78
2024/01/04 02:55:14;;;;;;;1.60;0.80;;;;;;;;;;5089393;27;39363;-78
2024/01/04 02:57:44;;;;;;;3.03;1.00;;;;;;;;;;5105117;28;41833;-78
2024/01/04 03:00:16;;;;;;;2.65;0.90;;;;;;;;;;5107847;28;42216;-78
2024/01/04 03:02:44;;;;;;;1.85;0.90;;;;;;;;;;5090374;27;42068;-78
2024/01/04 03:05:12;;;;;;;3.33;1.23;;;;;;;;;;5113560;27;42340;-78
2024/01/04 03:07:40;;;;;;;1.95;0.73;;;;;;;;;;5114111;27;42837;-78
2024/01/04 03:10:09;;;;;;;1.98;1.00;;;;;;;;;;5097826;28;39107;-78
2024/01/04 03:12:37;;;;;;;2.20;1.10;;;;;;;;;;5107671;27;41525;-78
2024/01/04 03:15:08;;;;;;;2.45;0.90;;;;;;;;;;5108880;28;41772;-78
2024/01/04 03:17:36;;;;;;;2.55;0.88;;;;;;;;;;5109638;27;41727;-78
2024/01/04 03:20:05;;;;;;;3.55;1.10;;;;;;;;;;5107177;27;43221;-78
2024/01/04 03:22:33;;;;;;;3.55;1.23;;;;;;;;;;5108263;27;40786;-78
2024/01/04 03:25:00;;;;;;;2.58;1.00;;;;;;;;;;5107807;27;42341;-78
2024/01/04 03:27:28;;;;;;;2.17;1.10;;;;;;;;;;5108533;27;43180;-78
2024/01/04 03:29:56;;;;;;;1.98;0.90;;;;;;;;;;5108245;27;40663;-77
2024/01/04 03:32:26;;;;;;;1.02;0.60;;;;;;;;;;5106808;27;42629;-78
2024/01/04 03:34:54;;;;;;;2.30;1.17;;;;;;;;;;5090490;28;41999;-77
2024/01/04 03:37:22;;;;;;;3.17;1.00;;;;;;;;;;5108616;27;42100;-77
2024/01/04 03:39:50;;;;;;;2.60;1.10;;;;;;;;;;5115916;27;41716;-77
2024/01/04 03:42:18;;;;;;;2.20;0.70;;;;;;;;;;5111061;27;40129;-78
2024/01/04 03:44:46;;;;;;;1.55;0.70;;;;;;;;;;5107847;27;42529;-77
2024/01/04 03:47:14;;;;;;;5.05;1.50;;;;;;;;;;5106545;27;43035;-77
2024/01/04 03:49:43;;;;;;;1.95;0.63;;;;;;;;;;5111473;27;40540;-77
2024/01/04 03:52:11;;;;;;;2.60;0.90;;;;;;;;;;5117238;27;43393;-77
2024/01/04 03:54:39;;;;;;;3.35;1.15;;;;;;;;;;5106644;27;42171;-77
2024/01/04 03:57:07;;;;;;;6.15;0.73;;;;;;;;;;5107154;27;40407;-78
2024/01/04 03:59:36;;;;;;;1.35;0.90;;;;;;;;;;5107915;27;42152;-77
2024/01/04 04:02:04;;;;;;;3.50;1.02;;;;;;;;;;5106116;27;40835;-77
2024/01/04 04:04:32;;;;;;;1.73;0.70;;;;;;;;;;5089052;28;40515;-78
2024/01/04 04:07:01;;;;;;;1.25;0.68;;;;;;;;;;5093201;27;41640;-77
2024/01/04 04:09:29;;;;;;;2.80;1.05;;;;;;;;;;5107438;27;40273;-77
2024/01/04 04:11:57;;;;;;;1.77;0.90;;;;;;;;;;5100407;27;40739;-77
2024/01/04 04:14:25;;;;;;;2.15;0.90;;;;;;;;;;5107848;27;42528;-77
2024/01/04 04:16:53;;;;;;;1.90;0.70;;;;;;;;;;5109155;27;41314;-77
2024/01/04 04:19:21;;;;;;;1.63;0.70;;;;;;;;;;5092153;27;40145;-77
2024/01/04 04:21:49;;;;;;;2.72;1.00;;;;;;;;;;5110052;27;41415;-77
2024/01/04 04:24:19;;;;;;;2.67;0.75;;;;;;;;;;5125056;27;42594;-78
2024/01/04 04:26:47;;;;;;;0.77;0.50;;;;;;;;;;5110489;27;42126;-77
2024/01/04 04:29:15;;;;;;;1.35;0.60;;;;;;;;;;5109892;27;40783;-78
2024/01/04 04:31:43;;;;;;;2.65;1.08;;;;;;;;;;5110145;27;41386;-77
2024/01/04 04:34:11;;;;;;;1.23;0.82;;;;;;;;;;5111237;27;41576;-78
2024/01/04 04:36:40;;;;;;;3.03;1.33;;;;;;;;;;5124397;27;39928;-77
2024/01/04 04:39:09;;;;;;;1.60;0.77;;;;;;;;;;5110848;27;41587;-78
2024/01/04 04:41:38;;;;;;;2.28;0.90;;;;;;;;;;5110852;27;42153;-77
2024/01/04 04:44:06;;;;;;;2.92;1.30;;;;;;;;;;5109815;27;41759;-78
2024/01/04 04:46:34;;;;;;;1.75;0.90;;;;;;;;;;5110292;27;43040;-78
2024/01/04 04:49:02;;;;;;;3.05;1.33;;;;;;;;;;5110628;27;41262;-78
2024/01/04 04:51:31;;;;;;;4.00;1.40;;;;;;;;;;5110518;27;41367;-78
2024/01/04 04:53:59;;;;;;;4.20;1.20;;;;;;;;;;5103632;27;42748;-78
2024/01/04 04:56:27;;;;;;;2.78;1.20;;;;;;;;;;5083674;28;39560;-78
2024/01/04 04:58:56;;;;;;;1.75;1.10;;;;;;;;;;5109930;27;42589;-77
2024/01/04 05:01:24;;;;;;;3.03;0.80;;;;;;;;;;5110925;27;42208;-78
2024/01/04 05:03:52;;;;;;;1.73;0.82;;;;;;;;;;5107599;27;40387;-77
2024/01/04 05:06:20;;;;;;;1.67;1.13;;;;;;;;;;5109890;27;42687;-78
2024/01/04 05:08:48;;;;;;;4.20;1.02;;;;;;;;;;5109222;27;39291;-77
2024/01/04 05:11:19;;;;;;;2.60;1.00;;;;;;;;;;5107032;27;41617;-77
2024/01/04 05:13:47;;;;;;;1.67;0.95;;;;;;;;;;5109606;27;41961;-78
2024/01/04 05:16:16;;;;;;;3.30;1.05;;;;;;;;;;5091430;28;39702;-78
2024/01/04 05:18:44;;;;;;;0.75;0.60;;;;;;;;;;5104206;27;41337;-77
2024/01/04 05:21:12;;;;;;;2.72;0.98;;;;;;;;;;5080627;28;40515;-77
2024/01/04 05:23:40;;;;;;;1.35;0.90;;;;;;;;;;5109899;27;40565;-76
2024/01/04 05:26:08;;;;;;;2.00;1.10;;;;;;;;;;5108978;27;41418;-78
2024/01/04 05:28:36;;;;;;;3.88;1.50;;;;;;;;;;5109835;27;40864;-77
2024/01/04 05:31:04;;;;;;;2.40;1.10;;;;;;;;;;5090893;28;41175;-77
2024/01/04 05:33:33;;;;;;;2.53;1.02;;;;;;;;;;5108603;27;42224;-78
2024/01/04 05:36:02;;;;;;;1.92;0.82;;;;;;;;;;5109241;27;41404;-78
2024/01/04 05:38:30;;;;;;;1.80;0.70;;;;;;;;;;5109442;27;41254;-77
2024/01/04 05:40:58;;;;;;;2.35;0.80;;;;;;;;;;5109719;27;42852;-78
2024/01/04 05:43:27;;;;;;;2.13;1.10;;;;;;;;;;5085598;27;38943;-77
2024/01/04 05:45:55;;;;;;;4.00;1.17;;;;;;;;;;5115094;27;41635;-76
2024/01/04 05:48:23;;;;;;;2.25;0.80;;;;;;;;;;5108636;27;41939;-78
2024/01/04 05:50:52;;;;;;;2.22;0.70;;;;;;;;;;5109368;27;41657;-78
2024/01/04 05:53:20;;;;;;;1.92;0.70;;;;;;;;;;5076600;27;41093;-78
2024/01/04 05:55:48;;;;;;;1.38;0.73;;;;;;;;;;5089099;27;41954;-77
2024/01/04 05:58:16;;;;;;;3.70;0.82;;;;;;;;;;5103155;27;41371;-77
2024/01/04 06:00:44;;;;;;;1.23;0.77;;;;;;;;;;5108888;27;42851;-77
2024/01/04 06:03:12;;;;;;;1.48;0.60;;;;;;;;;;5109478;27;40337;-77
2024/01/04 06:05:40;;;;;;;2.25;1.00;;;;;;;;;;5108918;27;43076;-73
2024/01/04 06:08:10;;;;;;;1.45;0.77;;;;;;;;;;5098356;27;42199;-73
2024/01/04 06:10:38;;;;;;;2.47;0.98;;;;;;;;;;5108023;27;41160;-73
2024/01/04 06:13:07;;;;;;;2.83;0.90;;;;;;;;;;5109421;27;41803;-73
2024/01/04 06:15:35;;;;;;;1.17;0.70;;;;;;;;;;5099591;27;40315;-73
2024/01/04 06:18:03;;;;;;;3.92;0.90;;;;;;;;;;5106139;27;43293;-73
2024/01/04 06:20:31;;;;;;;2.78;1.10;;;;;;;;;;5095775;28;42328;-73
2024/01/04 06:22:59;;;;;;;1.90;0.75;;;;;;;;;;5108905;27;41140;-73
2024/01/04 06:25:28;;;;;;;1.20;0.73;;;;;;;;;;5125263;27;41239;-73
2024/01/04 06:27:56;;;;;;;1.42;0.63;;;;;;;;;;5097505;27;42209;-77
2024/01/04 06:30:25;;;;;;;2.95;0.80;;;;;;;;;;5089742;27;38898;-77
2024/01/04 06:32:53;;;;;;;1.83;0.75;;;;;;;;;;5103038;27;41894;-78
2024/01/04 06:35:21;;;;;;;2.08;0.80;;;;;;;;;;5088212;27;40304;-77
2024/01/04 06:37:50;;;;;;;2.03;0.52;;;;;;;;;;5108267;27;41610;-78
2024/01/04 06:40:17;;;;;;;1.48;0.63;;;;;;;;;;5102548;27;42263;-78
2024/01/04 06:42:53;;;;;;;1.42;0.50;;;;;;;;;;5097741;27;39917;-77
2024/01/04 06:45:21;;;;;;;0.82;0.57;;;;;;;;;;5111244;27;42317;-77
2024/01/04 06:47:49;;;;;;;0.98;0.40;;;;;;;;;;5112434;27;41872;-77
2024/01/04 06:50:17;;;;;;;1.13;0.75;;;;;;;;;;5119196;27;40228;-77
2024/01/04 06:52:46;;;;;;;1.65;0.60;;;;;;;;;;5099665;28;41293;-78
2024/01/04 06:55:14;;;;;;;3.03;0.90;;;;;;;;;;5108074;27;40830;-78
2024/01/04 06:57:42;;;;;;;1.17;0.50;;;;;;;;;;5073872;28;41503;-77
2024/01/04 07:00:12;;;;;;;2.00;0.60;;;;;;;;;;5083621;28;42631;-78
2024/01/04 07:02:41;;;;;;;1.50;0.77;;;;;;;;;;5092081;28;41471;-78
2024/01/04 07:05:11;;;;;;;3.30;0.80;;;;;;;;;;5095797;28;41920;-77
2024/01/04 07:07:39;;;;;;;2.03;0.60;;;;;;;;;;5081588;28;42325;-77
2024/01/04 07:10:08;;;;;;;2.08;0.80;;;;;;;;;;5072806;28;40991;-78
2024/01/04 07:12:35;;;;;;;1.13;0.68;;;;;;;;;;5072180;28;41155;-77
2024/01/04 07:15:04;;;;;;;2.17;0.57;;;;;;;;;;5090159;28;42525;-78
2024/01/04 07:17:33;;;;;;;1.33;0.80;;;;;;;;;;5087975;28;41889;-77
2024/01/04 07:20:03;;;;;;;1.52;0.70;;;;;;;;;;5077694;28;40382;-78
2024/01/04 07:22:31;;;;;;;1.13;0.60;;;;;;;;;;5089947;28;40164;-78
2024/01/04 07:24:59;;;;;;;1.48;0.68;;;;;;;;;;5086985;28;41563;-78
2024/01/04 07:27:27;;;;;;;2.10;0.73;;;;;;;;;;5086954;28;42050;-77
2024/01/04 07:29:57;;;;;;;1.65;0.60;;;;;;;;;;5076344;28;39822;-78
2024/01/04 07:32:25;;;;;;;3.70;0.93;;;;;;;;;;5085685;28;42325;-78
2024/01/04 07:34:54;;;;;;;1.90;0.70;;;;;;;;;;5087400;28;41700;-78
2024/01/04 07:37:39;;;;;;;1.10;0.50;;;;;;;;;;5084935;28;40297;-78
2024/01/04 07:40:08;;;;;;;2.05;0.75;;;;;;;;;;5086917;28;42561;-78
2024/01/04 07:42:36;;;;;;;2.70;0.70;;;;;;;;;;5084833;28;40282;-78
2024/01/04 07:45:04;;;;;;;1.02;0.60;;;;;;;;;;5085024;28;41352;-78
2024/01/04 07:47:36;;;;;;;2.78;0.90;;;;;;;;;;5077543;28;42605;-78
2024/01/04 07:50:06;;;;;;;1.60;0.65;;;;;;;;;;5081167;28;41389;-79
2024/01/04 07:52:34;;;;;;;1.63;0.57;;;;;;;;;;5088755;28;42245;-72
2024/01/04 07:55:03;;;;;;;0.68;0.50;;;;;;;;;;5093343;28;41680;-71
2024/01/04 07:57:34;;;;;;;3.33;0.90;;;;;;;;;;5108142;27;40072;-71
2024/01/04 08:00:02;;;;;;;2.10;0.82;;;;;;;;;;5102379;27;42301;-71
2024/01/04 08:02:39;;;;;;;2.40;0.60;;;;;;;;;;5113172;27;41403;-72
2024/01/04 08:05:10;;;;;;;3.10;0.90;;;;;;;;;;5116799;27;42572;-71
2024/01/04 08:07:38;;;;;;;3.63;0.88;;;;;;;;;;5111012;27;42350;-72
2024/01/04 08:10:08;;;;;;;2.80;0.90;;;;;;;;;;5111269;27;39892;-73
2024/01/04 08:12:39;;;;;;;3.15;0.80;;;;;;;;;;5111411;27;42273;-71
2024/01/04 08:15:08;;;;;;;2.05;0.88;;;;;;;;;;5109422;27;42797;-72
2024/01/04 08:17:36;;;;;;;3.03;0.90;;;;;;;;;;5110814;27;39897;-72
2024/01/04 08:20:05;;;;;;;1.38;0.68;;;;;;;;;;5110443;27;42550;-72
2024/01/04 08:22:37;;;;;;;2.30;0.70;;;;;;;;;;5105550;27;40192;-72
2024/01/04 08:25:05;;;;;;;2.03;0.70;;;;;;;;;;5120903;27;41861;-72
2024/01/04 08:27:33;;;;;;;1.80;0.70;;;;;;;;;;5116601;27;42040;-73
2024/01/04 08:30:01;;;;;;;5.13;0.80;;;;;;;;;;5121702;27;41370;-73
2024/01/04 08:32:29;;;;;;;2.20;0.80;;;;;;;;;;5104132;27;42793;-72
2024/01/04 08:34:57;;;;;;;3.67;0.98;;;;;;;;;;5102741;27;41997;-72
2024/01/04 08:37:25;;;;;;;1.27;0.70;;;;;;;;;;5110366;27;40370;-73
2024/01/04 08:39:55;;;;;;;2.88;0.70;;;;;;;;;;5109701;27;41613;-72
2024/01/04 08:42:23;;;;;;;3.00;0.70;;;;;;;;;;5109673;27;43096;-72
2024/01/04 08:44:51;;;;;;;1.25;0.50;;;;;;;;;;5109899;27;42266;-73
2024/01/04 08:47:19;;;;;;;1.80;0.77;;;;;;;;;;5109583;28;41541;-72
2024/01/04 08:49:47;;;;;;;3.03;0.77;;;;;;;;;;5108897;27;41170;-73
2024/01/04 08:52:15;;;;;;;2.90;0.50;;;;;;;;;;5077987;28;41134;-73
2024/01/04 08:54:43;;;;;;;5.65;0.82;;;;;;;;;;5109461;27;42130;-72
2024/01/04 08:57:14;;;;;;;4.85;0.68;;;;;;;;;;5094585;27;41370;-74
2024/01/04 08:59:43;;;;;;;3.70;0.80;;;;;;;;;;5121980;27;41679;-73
2024/01/04 09:02:11;;;;;;;4.93;0.55;;;;;;;;;;5107315;27;43082;-75
2024/01/04 09:04:39;;;;;;;7.88;0.95;;;;;;;;;;5100165;27;41810;-73
2024/01/04 09:07:08;;;;;;;4.35;0.68;;;;;;;;;;5109945;27;42114;-74
2024/01/04 09:09:36;;;;;;;6.00;0.85;;;;;;;;;;5109324;27;41360;-74
2024/01/04 09:12:04;;;;;;;9.00;1.25;;;;;;;;;;5109193;27;41183;-75
2024/01/04 09:14:34;;;;;;;5.32;0.80;;;;;;;;;;5091900;27;43209;-74
2024/01/04 09:17:02;;;;;;;5.93;1.15;;;;;;;;;;5105469;27;41277;-76
2024/01/04 09:19:29;;;;;;;4.15;0.93;;;;;;;;;;5115435;27;41121;-74
2024/01/04 09:21:58;;;;;;;7.57;0.80;;;;;;;;;;5117166;27;42082;-73
2024/01/04 09:24:28;;;;;;;8.13;1.23;;;;;;;;;;5108025;27;40932;-74
2024/01/04 09:26:56;;;;;;;5.03;0.82;;;;;;;;;;5110444;28;41699;-73
2024/01/04 09:29:24;;;;;;;2.13;0.65;;;;;;;;;;5108246;27;40289;-73
2024/01/04 09:31:55;;;;;;;3.15;0.90;;;;;;;;;;5114494;27;41727;-74
2024/01/04 09:34:24;;;;;;;3.03;0.73;;;;;;;;;;5097410;27;42913;-74
2024/01/04 09:36:54;;;;;;;11.77;0.80;;;;;;;;;;5093769;27;39682;-72
2024/01/04 09:39:22;;;;;;;2.75;0.68;;;;;;;;;;5111649;27;40766;-72
2024/01/04 09:41:50;;;;;;;2.17;0.85;;;;;;;;;;5101865;27;41891;-71
2024/01/04 09:44:18;;;;;;;6.55;1.33;;;;;;;;;;5111560;27;39940;-70
2024/01/04 09:46:46;;;;;;;1.35;0.60;;;;;;;;;;5107875;27;42081;-71
2024/01/04 09:49:15;;;;;;;4.95;0.73;;;;;;;;;;5105252;27;33233;-71
2024/01/04 09:51:44;;;;;;;4.20;0.65;;;;;;;;;;5112110;27;42541;-71
2024/01/04 09:54:12;;;;;;;2.85;0.90;;;;;;;;;;5108900;27;43730;-71
2024/01/04 09:56:42;;;;;;;2.15;0.60;;;;;;;;;;5110483;27;41378;-72
2024/01/04 09:59:10;;;;;;;6.55;1.10;;;;;;;;;;5098342;27;43871;-72
2024/01/04 10:01:39;;;;;;;1.75;0.32;;;;;;;;;;5102152;27;41618;-71
2024/01/04 10:04:07;;;;;;;1.67;0.57;;;;;;;;;;5110473;27;40657;-71
2024/01/04 10:06:38;;;;;;;3.03;1.05;;;;;;;;;;5109547;27;41308;-71
2024/01/04 10:09:10;;;;;;;6.32;0.70;;;;;;;;;;5107151;27;41941;-72
2024/01/04 10:11:38;;;;;;;2.58;0.90;;;;;;;;;;5106405;27;41566;-71
2024/01/04 10:14:06;;;;;;;2.85;0.52;;;;;;;;;;5102622;27;42689;-71
2024/01/04 10:16:34;;;;;;;10.65;0.75;;;;;;;;;;5099205;27;40031;-71
2024/01/04 10:19:02;;;;;;;8.00;0.82;;;;;;;;;;5092771;27;42082;-71
2024/01/04 10:21:31;;;;;;;9.65;0.70;;;;;;;;;;5101787;27;42574;-71
2024/01/04 10:24:00;;;;;;;5.47;1.00;;;;;;;;;;5100285;27;41817;-72
2024/01/04 10:26:28;;;;;;;6.72;0.80;;;;;;;;;;5107976;27;41485;-73
2024/01/04 10:28:56;;;;;;;5.80;0.85;;;;;;;;;;5107018;28;44244;-73
2024/01/04 10:31:24;;;;;;;4.28;0.80;;;;;;;;;;5102747;27;40479;-72
2024/01/04 10:33:59;;;;;;;3.28;1.17;;;;;;;;;;5107813;27;41785;-73
2024/01/04 10:36:28;;;;;;;10.52;0.85;;;;;;;;;;5107222;27;40296;-74
2024/01/04 10:38:58;;;;;;;3.65;0.63;;;;;;;;;;5108739;27;42029;-74
2024/01/04 10:41:28;;;;;;;2.22;0.55;;;;;;;;;;5106219;27;41599;-73
2024/01/04 10:44:06;;;;;;;2.28;0.70;;;;;;;;;;5113153;27;40721;-74
2024/01/04 10:46:35;;;;;;;2.30;0.90;;;;;;;;;;5104431;27;41158;-73
2024/01/04 10:49:03;;;;;;;3.63;0.77;;;;;;;;;;5107336;27;42037;-75
2024/01/04 10:51:31;;;;;;;2.03;0.50;;;;;;;;;;5105298;27;40243;-73
2024/01/04 10:54:01;;;;;;;2.08;0.50;;;;;;;;;;5115741;27;41446;-74
2024/01/04 10:56:32;;;;;;;3.15;0.93;;;;;;;;;;5113453;27;40306;-75
2024/01/04 10:59:00;;;;;;;2.00;0.60;;;;;;;;;;5113864;27;41172;-73
2024/01/04 11:01:28;;;;;;;4.00;0.50;;;;;;;;;;5103971;27;42198;-73
2024/01/04 11:03:57;;;;;;;4.72;0.80;;;;;;;;;;5106703;27;20763;-76
2024/01/04 11:06:26;;;;;;;1.58;0.40;;;;;;;;;;5101677;27;41384;-75
2024/01/04 11:08:54;;;;;;;3.63;0.70;;;;;;;;;;5103360;27;41741;-75
2024/01/04 11:11:22;;;;;;;1.00;0.40;;;;;;;;;;5099234;27;40377;-75
2024/01/04 11:13:52;;;;;;;4.72;0.80;;;;;;;;;;5113024;27;43160;-72
2024/01/04 11:16:25;;;;;;;3.92;0.88;;;;;;;;;;5105509;27;41805;-74
2024/01/04 11:18:57;;;;;;;3.35;0.77;;;;;;;;;;5112189;27;42304;-73
2024/01/04 11:21:33;;;;;;;1.65;0.50;;;;;;;;;;5092754;28;42471;-74
2024/01/04 11:24:02;;;;;;;3.45;0.70;;;;;;;;;;5089910;28;40396;-73
2024/01/04 11:26:34;;;;;;;4.40;0.77;;;;;;;;;;5107147;27;41642;-72
2024/01/04 11:29:09;;;;;;;3.88;1.25;;;;;;;;;;5106502;27;41884;-73
2024/01/04 11:31:41;;;;;;;3.15;0.75;;;;;;;;;;5108856;27;41336;-75
2024/01/04 11:34:10;;;;;;;2.67;0.75;;;;;;;;;;5111675;27;41250;-76
2024/01/04 11:36:38;;;;;;;4.38;0.70;;;;;;;;;;5107090;27;42053;-74
2024/01/04 11:39:06;;;;;;;1.85;0.70;;;;;;;;;;5106797;28;41384;-72
2024/01/04 11:41:34;;;;;;;2.35;0.95;;;;;;;;;;5104972;27;42342;-74
2024/01/04 11:44:06;;;;;;;3.05;0.77;;;;;;;;;;5087668;28;40554;-75
2024/01/04 11:46:34;;;;;;;5.18;1.00;;;;;;;;;;5105477;27;41229;-75
2024/01/04 11:49:04;;;;;;;4.57;1.25;;;;;;;;;;5115044;27;42026;-74
2024/01/04 11:51:33;;;;;;;1.88;0.45;;;;;;;;;;5102133;27;41228;-72
2024/01/04 11:54:02;;;;;;;3.83;1.20;;;;;;;;;;5107623;27;41404;-71
2024/01/04 11:56:30;;;;;;;2.97;0.80;;;;;;;;;;5113428;27;41652;-71
2024/01/04 11:59:09;;;;;;;2.60;0.80;;;;;;;;;;5106924;28;39200;-70
2024/01/04 12:01:38;;;;;;;2.35;0.85;;;;;;;;;;5104027;27;42562;-72
2024/01/04 12:04:11;;;;;;;4.00;0.75;;;;;;;;;;5099219;27;41109;-74
2024/01/04 12:06:39;;;;;;;1.17;0.70;;;;;;;;;;5110350;27;41637;-71
2024/01/04 12:09:07;;;;;;;2.83;0.70;;;;;;;;;;5106607;27;41967;-71
2024/01/04 12:11:35;;;;;;;3.55;1.20;;;;;;;;;;5107234;27;39957;-72
2024/01/04 12:14:03;;;;;;;2.15;0.80;;;;;;;;;;5106398;27;41578;-73
2024/01/04 12:16:32;;;;;;;5.68;1.33;;;;;;;;;;5106853;27;42005;-72
2024/01/04 12:19:02;;;;;;;3.13;0.85;;;;;;;;;;5106614;27;40580;-70
2024/01/04 12:21:30;;;;;;;2.90;1.30;;;;;;;;;;5104405;27;42091;-71
2024/01/04 12:23:58;;;;;;;4.68;1.73;;;;;;;;;;5106426;27;39946;-70
2024/01/04 12:26:28;;;;;;;3.90;1.15;;;;;;;;;;5104312;27;41978;-69
2024/01/04 12:28:56;;;;;;;2.25;1.13;;;;;;;;;;5106681;28;42146;-72
2024/01/04 12:31:24;;;;;;;4.07;1.80;;;;;;;;;;5106147;27;40485;-72
2024/01/04 12:33:57;;;;;;;2.50;0.80;;;;;;;;;;5106427;27;41205;-72
2024/01/04 12:36:25;;;;;;;2.25;1.00;;;;;;;;;;5103072;27;41801;-71
2024/01/04 12:38:54;;;;;;;2.90;1.50;;;;;;;;;;5109682;27;40031;-71
2024/01/04 12:41:25;;;;;;;4.00;1.38;;;;;;;;;;5108859;27;41744;-71
2024/01/04 12:43:53;;;;;;;2.92;1.30;;;;;;;;;;5117696;27;43290;-70
2024/01/04 12:46:22;;;;;;;2.08;1.00;;;;;;;;;;5098096;27;42333;-70
2024/01/04 12:48:51;;;;;;;2.33;1.00;;;;;;;;;;5108678;27;42245;-74
2024/01/04 12:51:27;;;;;;;2.40;1.00;;;;;;;;;;5110144;27;40348;-76
2024/01/04 12:53:55;;;;;;;3.45;1.10;;;;;;;;;;5107733;27;42114;-73
2024/01/04 12:56:23;;;;;;;5.88;1.48;;;;;;;;;;5098056;27;42034;-73
2024/01/04 12:58:51;;;;;;;4.63;1.20;;;;;;;;;;5108774;27;41523;-72
2024/01/04 13:01:19;;;;;;;1.77;1.00;;;;;;;;;;5092489;28;40701;-73
2024/01/04 13:03:49;;;;;;;4.28;1.38;;;;;;;;;;5110025;27;41946;-73
2024/01/04 13:06:17;;;;;;;1.65;0.90;;;;;;;;;;5108624;27;41201;-74
2024/01/04 13:08:47;;;;;;;5.90;1.60;;;;;;;;;;5095675;27;42074;-76
2024/01/04 13:11:15;;;;;;;3.45;1.33;;;;;;;;;;5124422;27;40639;-75
2024/01/04 13:13:44;;;;;;;3.15;1.08;;;;;;;;;;5116492;27;41755;-75
2024/01/04 13:16:13;;;;;;;3.88;1.40;;;;;;;;;;5090432;27;43041;-75
2024/01/04 13:18:41;;;;;;;3.90;1.08;;;;;;;;;;5117546;27;40234;-75
2024/01/04 13:21:12;;;;;;;3.22;1.02;;;;;;;;;;5108292;27;42167;-75
2024/01/04 13:23:40;;;;;;;2.67;1.10;;;;;;;;;;5107872;27;41938;-74
2024/01/04 13:26:10;;;;;;;3.45;1.02;;;;;;;;;;5113864;27;39559;-73
2024/01/04 13:28:37;;;;;;;5.28;1.73;;;;;;;;;;5111894;27;42433;-70
2024/01/04 13:31:06;;;;;;;2.95;1.10;;;;;;;;;;5115181;27;40102;-71
2024/01/04 13:33:34;;;;;;;4.75;1.00;;;;;;;;;;5099113;27;41235;-70
2024/01/04 13:36:03;;;;;;;3.78;1.10;;;;;;;;;;5106902;27;42425;-71
2024/01/04 13:38:31;;;;;;;1.65;0.80;;;;;;;;;;5104021;27;40369;-69
2024/01/04 13:40:59;;;;;;;2.10;1.10;;;;;;;;;;5113469;27;41996;-71
2024/01/04 13:43:28;;;;;;;2.20;0.95;;;;;;;;;;5124100;27;42456;-71
2024/01/04 13:45:56;;;;;;;1.25;0.82;;;;;;;;;;5115957;27;40549;-70
2024/01/04 13:48:25;;;;;;;2.60;0.95;;;;;;;;;;5109528;27;41640;-70
2024/01/04 13:50:55;;;;;;;3.85;0.90;;;;;;;;;;5099449;27;41945;-70
2024/01/04 13:53:23;;;;;;;2.05;0.88;;;;;;;;;;5109154;27;42368;-71
2024/01/04 13:55:51;;;;;;;2.25;0.82;;;;;;;;;;5107174;27;41748;-71
2024/01/04 13:58:19;;;;;;;0.98;0.50;;;;;;;;;;5113979;27;41005;-70
2024/01/04 14:00:48;;;;;;;1.15;0.70;;;;;;;;;;5092496;28;41353;-70
2024/01/04 14:03:16;;;;;;;2.45;0.98;;;;;;;;;;5117509;27;42252;-70
2024/01/04 14:05:46;;;;;;;1.20;0.73;;;;;;;;;;5113604;27;41099;-70
2024/01/04 14:08:21;;;;;;;2.33;1.10;;;;;;;;;;5104953;27;42257;-68
2024/01/04 14:10:50;;;;;;;1.35;1.00;;;;;;;;;;5117096;27;41944;-71
2024/01/04 14:13:18;;;;;;;2.80;1.05;;;;;;;;;;5124260;27;41641;-71
2024/01/04 14:15:47;;;;;;;1.02;0.68;;;;;;;;;;5118881;27;41944;-70
2024/01/04 14:18:16;;;;;;;1.85;0.98;;;;;;;;;;5091785;27;40306;-70
2024/01/04 14:20:44;;;;;;;1.65;1.00;;;;;;;;;;5106984;27;41665;-68
2024/01/04 14:23:12;;;;;;;0.88;0.85;;;;;;;;;;5116882;27;42673;-69
2024/01/04 14:25:40;;;;;;;1.73;0.73;;;;;;;;;;5114287;27;40316;-72
2024/01/04 14:28:08;;;;;;;1.55;0.90;;;;;;;;;;5111803;27;41558;-72
2024/01/04 14:30:36;;;;;;;2.10;0.90;;;;;;;;;;5103635;27;43043;-74
2024/01/04 14:33:05;;;;;;;1.10;0.98;;;;;;;;;;5109626;27;40226;-69
2024/01/04 14:35:36;;;;;;;2.58;1.73;;;;;;;;;;5113510;27;41810;-73
2024/01/04 14:38:04;;;;;;;3.28;1.98;;;;;;;;;;5111841;27;41680;-72
2024/01/04 14:40:32;;;;;;;2.80;1.67;;;;;;;;;;5117436;27;41696;-72
2024/01/04 14:43:00;;;;;;;1.77;0.85;;;;;;;;;;5116058;27;42645;-72
2024/01/04 14:45:29;;;;;;;1.23;0.80;;;;;;;;;;5116286;27;40413;-69
2024/01/04 14:47:57;;;;;;;2.13;1.02;;;;;;;;;;5108073;27;41636;-69
2024/01/04 14:50:25;;;;;;;2.38;0.85;;;;;;;;;;5113256;27;41886;-70
2024/01/04 14:52:56;;;;;;;1.67;1.08;;;;;;;;;;5110479;27;40958;-73